Ridgetown, Canada
Current Conditions -  °F | °C
As of 2:00 PM on Sunday 25 Jan 2015 (Local Time) from CYCK Reporting Station
Overcast Overcast  
Wind Chill:   Ceiling: 6500
Heat Index: 19°   Visibility: 9mi
Dew Point:   Wind: 13mph
Humidity: 63%   Direction: 50°NE
Pressure: 29.9"   Gusts: NA
Location:  42.43°N, 81.88°W
Report Text: CYCK 251900Z AUTO 05011KT 9SM FEW055 OVC065 M07/M13 A2990 RMK SLP135
Loading
Personal Weather Stations






























Interactive Weather Map New forecast layout! Learn more

10-Day Weather Forecast

Advertisements
Track Severe Weather on mobile